createdAt,value
2017-10-19T00:00:53.543Z,997.81
2017-10-19T00:02:04.007Z,997.81
2017-10-19T00:03:14.415Z,997.83
2017-10-19T00:04:24.825Z,997.77
2017-10-19T00:05:34.889Z,997.76
2017-10-19T00:06:45.295Z,997.79
2017-10-19T00:07:55.366Z,997.81
2017-10-19T00:09:05.806Z,997.83
2017-10-19T00:10:16.242Z,997.82
2017-10-19T00:11:26.657Z,997.77
2017-10-19T00:12:36.730Z,997.78
2017-10-19T00:13:47.176Z,997.78
2017-10-19T00:14:57.237Z,997.78
2017-10-19T00:16:06.988Z,997.79
2017-10-19T00:17:17.081Z,997.81
2017-10-19T00:18:27.158Z,997.78
2017-10-19T00:19:37.238Z,997.77
2017-10-19T00:20:47.639Z,997.79
2017-10-19T00:21:57.702Z,997.82
2017-10-19T00:23:07.454Z,997.82
2017-10-19T00:24:17.541Z,997.77
2017-10-19T00:25:27.931Z,997.79
2017-10-19T00:26:38.345Z,997.82
2017-10-19T00:27:48.743Z,997.84
2017-10-19T00:28:59.143Z,997.84
2017-10-19T00:30:09.540Z,997.89
2017-10-19T00:31:19.657Z,997.86
2017-10-19T00:32:29.409Z,997.84
2017-10-19T00:33:39.803Z,997.83
2017-10-19T00:34:49.872Z,997.89
2017-10-19T00:36:00.280Z,997.88
2017-10-19T00:37:10.415Z,997.92
2017-10-19T00:38:21.247Z,997.92
2017-10-19T00:39:32.834Z,997.94
2017-10-19T00:40:42.893Z,997.94
2017-10-19T00:41:53.298Z,997.92
2017-10-19T00:43:03.696Z,997.9
2017-10-19T00:44:14.105Z,997.86
2017-10-19T00:45:24.204Z,997.87
2017-10-19T00:46:34.278Z,997.88
2017-10-19T00:47:44.702Z,997.87
2017-10-19T00:48:55.147Z,997.85
2017-10-19T00:50:05.200Z,997.85
2017-10-19T00:51:14.942Z,997.84
2017-10-19T00:52:25.033Z,997.84
2017-10-19T00:53:35.450Z,997.85
2017-10-19T00:54:45.569Z,997.83
2017-10-19T00:55:55.975Z,997.84
2017-10-19T00:57:06.060Z,997.81
2017-10-19T00:58:16.463Z,997.83
2017-10-19T00:59:26.544Z,997.84
2017-10-19T01:00:37.008Z,997.83
2017-10-19T01:01:47.414Z,997.84
2017-10-19T01:02:57.849Z,997.88
2017-10-19T01:04:08.296Z,997.89
2017-10-19T01:05:18.378Z,997.92
2017-10-19T01:06:28.830Z,997.92
2017-10-19T01:07:38.578Z,997.89
2017-10-19T01:08:49.025Z,997.87
2017-10-19T01:09:59.425Z,997.82
2017-10-19T01:11:09.505Z,997.85
2017-10-19T01:12:19.903Z,997.83
2017-10-19T01:13:30.308Z,997.82
2017-10-19T01:14:40.706Z,997.87
2017-10-19T01:15:50.474Z,997.84
2017-10-19T01:17:00.540Z,997.83
2017-10-19T01:18:10.982Z,997.86
2017-10-19T01:19:21.364Z,997.85
2017-10-19T01:20:31.431Z,997.8
2017-10-19T01:21:41.836Z,997.8
2017-10-19T01:22:51.921Z,997.79
2017-10-19T01:24:01.762Z,997.75
2017-10-19T01:25:12.154Z,997.73
2017-10-19T01:26:22.545Z,997.74
2017-10-19T01:27:32.296Z,997.74
2017-10-19T01:28:42.358Z,997.79
2017-10-19T01:29:52.749Z,997.81
2017-10-19T01:31:02.813Z,997.84
2017-10-19T01:32:13.223Z,997.82
2017-10-19T01:33:23.292Z,997.88
2017-10-19T01:34:33.686Z,997.86
2017-10-19T01:35:44.130Z,997.84
2017-10-19T01:36:54.513Z,997.86
2017-10-19T01:38:04.592Z,997.87
2017-10-19T01:39:15.010Z,997.88
2017-10-19T01:40:25.415Z,997.91
2017-10-19T01:41:35.864Z,997.87
2017-10-19T01:42:45.944Z,997.87
2017-10-19T01:43:56.348Z,997.88
2017-10-19T01:45:06.741Z,997.9
2017-10-19T01:46:16.809Z,997.89
2017-10-19T01:47:27.226Z,997.86
2017-10-19T01:48:37.643Z,997.92
2017-10-19T01:49:47.705Z,997.9
2017-10-19T01:50:58.097Z,997.93
2017-10-19T01:52:08.183Z,997.88
2017-10-19T01:53:18.306Z,997.89
2017-10-19T01:54:28.415Z,997.92
2017-10-19T01:55:38.815Z,997.92
2017-10-19T01:56:49.215Z,997.92
2017-10-19T01:57:59.621Z,997.86
2017-10-19T01:59:10.086Z,997.9
2017-10-19T02:00:21.344Z,997.86
2017-10-19T02:01:31.744Z,997.87
2017-10-19T02:02:41.812Z,997.82
2017-10-19T02:03:52.190Z,997.81
2017-10-19T02:05:02.274Z,997.84
2017-10-19T02:06:12.350Z,997.8
2017-10-19T02:07:22.426Z,997.79
2017-10-19T02:08:32.146Z,997.86
2017-10-19T02:09:42.545Z,997.83
2017-10-19T02:10:52.617Z,997.85
2017-10-19T02:12:03.020Z,997.85
2017-10-19T02:13:13.434Z,997.91
2017-10-19T02:14:23.500Z,997.87
2017-10-19T02:15:33.587Z,997.89
2017-10-19T02:16:43.665Z,997.89
2017-10-19T02:17:53.731Z,997.9
2017-10-19T02:19:03.826Z,997.89
2017-10-19T02:20:14.228Z,997.89
2017-10-19T02:21:24.627Z,997.85
2017-10-19T02:22:35.079Z,997.9
2017-10-19T02:23:45.482Z,997.94
2017-10-19T02:24:55.876Z,997.87
2017-10-19T02:26:06.268Z,997.89
2017-10-19T02:27:16.661Z,997.87
2017-10-19T02:28:26.719Z,997.84
2017-10-19T02:29:37.126Z,997.86
2017-10-19T02:30:47.505Z,997.89
2017-10-19T02:31:57.588Z,997.89
2017-10-19T02:33:08.011Z,997.88
2017-10-19T02:34:18.419Z,997.89
2017-10-19T02:35:28.509Z,997.93
2017-10-19T02:36:38.940Z,997.95
2017-10-19T02:37:49.348Z,997.96
2017-10-19T02:38:59.764Z,997.98
2017-10-19T02:40:10.168Z,997.96
2017-10-19T02:41:20.581Z,998
2017-10-19T02:42:31.009Z,998.02
2017-10-19T02:43:41.413Z,998.01
2017-10-19T02:44:51.817Z,997.97
2017-10-19T02:46:02.276Z,997.98
2017-10-19T02:47:12.348Z,998.01
2017-10-19T02:48:22.751Z,998
2017-10-19T02:49:32.835Z,998
2017-10-19T02:50:42.897Z,998.06
2017-10-19T02:51:53.288Z,998.01
2017-10-19T02:53:03.371Z,998
2017-10-19T02:54:13.766Z,997.98
2017-10-19T02:55:24.197Z,997.96
2017-10-19T02:56:34.590Z,998.01
2017-10-19T02:57:45.886Z,997.95
2017-10-19T02:58:55.950Z,997.92
2017-10-19T03:00:06.341Z,997.96
2017-10-19T03:01:16.087Z,997.96
2017-10-19T03:02:26.561Z,997.94
2017-10-19T03:33:46.400Z,998.21
2017-10-19T03:34:56.772Z,998.2
2017-10-19T03:36:07.170Z,998.19
2017-10-19T03:37:17.569Z,998.19
2017-10-19T03:38:27.961Z,998.14
2017-10-19T03:39:38.417Z,998.16
2017-10-19T03:40:48.817Z,998.15
2017-10-19T03:41:58.890Z,998.17
2017-10-19T03:43:09.306Z,998.12
2017-10-19T03:44:19.066Z,998.14
2017-10-19T03:45:29.511Z,998.14
2017-10-19T03:46:39.927Z,998.14
2017-10-19T03:47:49.993Z,998.12
2017-10-19T03:49:00.058Z,998.14
2017-10-19T03:50:09.811Z,998.15
2017-10-19T03:51:20.255Z,998.11
2017-10-19T03:52:30.659Z,998.09
2017-10-19T03:53:41.077Z,998.09
2017-10-19T03:54:51.473Z,998.16
2017-10-19T03:56:01.885Z,998.11
2017-10-19T03:57:11.956Z,998.13
2017-10-19T03:58:22.349Z,998.12
2017-10-19T03:59:32.751Z,998.1
2017-10-19T04:00:43.152Z,998.09
2017-10-19T04:01:53.545Z,998.12
2017-10-19T04:03:04.000Z,998.08
2017-10-19T04:04:14.397Z,998.11
2017-10-19T04:05:24.820Z,998.13
2017-10-19T04:06:34.884Z,998.1
2017-10-19T04:07:45.288Z,998.1
2017-10-19T04:08:55.400Z,998.15
2017-10-19T04:10:05.466Z,998.12
2017-10-19T04:11:15.872Z,998.15
2017-10-19T04:12:25.621Z,998.18
2017-10-19T04:13:36.017Z,998.17
2017-10-19T04:14:46.148Z,998.12
2017-10-19T04:15:56.207Z,998.18
2017-10-19T04:17:06.611Z,998.11
2017-10-19T04:18:17.019Z,998.11
2017-10-19T04:19:27.409Z,998.06
2017-10-19T04:20:37.803Z,998.05
2017-10-19T04:21:48.219Z,998.06
2017-10-19T04:22:58.617Z,998.08
2017-10-19T04:24:09.019Z,998.13
2017-10-19T04:25:19.413Z,998.11
2017-10-19T04:26:29.881Z,998.11
2017-10-19T04:27:40.532Z,998.1
2017-10-19T04:28:50.610Z,998.17
2017-10-19T04:30:01.022Z,998.15
2017-10-19T04:31:11.100Z,998.13
2017-10-19T04:32:21.500Z,998.14
2017-10-19T04:33:31.564Z,998.14
2017-10-19T04:34:41.955Z,998.15
2017-10-19T04:35:52.351Z,998.12
2017-10-19T04:37:02.444Z,998.13
2017-10-19T04:38:12.904Z,998.17
2017-10-19T04:39:23.307Z,998.17
2017-10-19T04:40:33.698Z,998.2
2017-10-19T04:41:43.773Z,998.16
2017-10-19T04:42:54.169Z,998.16
2017-10-19T04:44:04.310Z,998.17
2017-10-19T04:45:14.385Z,998.16
2017-10-19T04:46:24.791Z,998.17
2017-10-19T04:47:35.176Z,998.17
2017-10-19T04:48:45.240Z,998.15
2017-10-19T04:49:55.688Z,998.14
2017-10-19T04:51:06.096Z,998.13
2017-10-19T04:52:16.519Z,998.1
2017-10-19T04:53:26.582Z,998.12
2017-10-19T04:54:37.005Z,998.12
2017-10-19T04:55:47.467Z,998.11
2017-10-19T04:56:57.872Z,998.17
2017-10-19T04:58:08.295Z,998.14
2017-10-19T04:59:18.701Z,998.13
2017-10-19T05:00:29.137Z,998.13
2017-10-19T05:01:39.583Z,998.11
2017-10-19T05:02:49.660Z,998.12
2017-10-19T05:03:59.729Z,998.13
2017-10-19T05:05:09.791Z,998.15
2017-10-19T05:06:19.533Z,998.14
2017-10-19T05:07:29.974Z,998.16
2017-10-19T05:08:40.366Z,998.14
2017-10-19T05:09:51.199Z,998.11
2017-10-19T05:11:01.598Z,998.13
2017-10-19T05:12:12.002Z,998.14
2017-10-19T05:13:22.122Z,998.15
2017-10-19T05:14:32.188Z,998.18
2017-10-19T05:15:42.579Z,998.18
2017-10-19T05:16:52.990Z,998.18
2017-10-19T05:18:03.076Z,998.19
2017-10-19T05:19:13.170Z,998.24
2017-10-19T05:20:23.561Z,998.25
2017-10-19T05:21:33.960Z,998.25
2017-10-19T05:22:44.361Z,998.26
2017-10-19T05:23:54.455Z,998.24
2017-10-19T05:25:04.887Z,998.26
2017-10-19T05:26:15.278Z,998.25
2017-10-19T05:27:25.692Z,998.24
2017-10-19T05:28:36.077Z,998.21
2017-10-19T05:29:46.161Z,998.25
2017-10-19T05:30:56.609Z,998.21
2017-10-19T05:32:06.679Z,998.22
2017-10-19T05:33:17.083Z,998.22
2017-10-19T05:34:27.478Z,998.26
2017-10-19T05:35:37.564Z,998.28
2017-10-19T05:36:47.973Z,998.33
2017-10-19T05:37:58.371Z,998.33
2017-10-19T05:39:08.780Z,998.36
2017-10-19T05:40:18.863Z,998.34
2017-10-19T05:41:28.925Z,998.37
2017-10-19T05:42:39.386Z,998.35
2017-10-19T05:43:49.473Z,998.37
2017-10-19T05:44:59.879Z,998.35
2017-10-19T05:46:10.277Z,998.4
2017-10-19T05:47:20.659Z,998.41
2017-10-19T05:48:31.105Z,998.45
2017-10-19T05:49:41.505Z,998.43
2017-10-19T05:50:51.902Z,998.45
2017-10-19T05:52:02.330Z,998.52
2017-10-19T05:53:13.712Z,998.5
2017-10-19T05:54:23.515Z,998.49
2017-10-19T05:55:33.599Z,998.52
2017-10-19T05:56:43.661Z,998.5
2017-10-19T05:57:53.739Z,998.52
2017-10-19T05:59:03.804Z,998.51
2017-10-19T06:00:14.259Z,998.54
2017-10-19T06:01:24.324Z,998.58
2017-10-19T06:02:34.744Z,998.6
2017-10-19T06:03:45.134Z,998.6
2017-10-19T06:04:55.229Z,998.61
2017-10-19T06:06:05.732Z,998.63
2017-10-19T06:07:16.132Z,998.64
2017-10-19T06:08:25.900Z,998.65
2017-10-19T06:09:36.290Z,998.66
2017-10-19T06:10:46.681Z,998.69
2017-10-19T06:11:57.075Z,998.64
2017-10-19T06:13:07.154Z,998.7
2017-10-19T06:14:17.556Z,998.68
2017-10-19T06:15:27.637Z,998.67
2017-10-19T06:16:37.368Z,998.71
2017-10-19T06:17:47.490Z,998.74
2017-10-19T06:18:57.900Z,998.72
2017-10-19T06:20:08.311Z,998.78
2017-10-19T06:21:18.706Z,998.82
2017-10-19T06:22:29.113Z,998.81
2017-10-19T06:23:39.568Z,998.84
2017-10-19T06:24:49.972Z,998.86
2017-10-19T06:26:00.375Z,998.87
2017-10-19T06:27:10.800Z,998.85
2017-10-19T06:28:21.200Z,998.92
2017-10-19T06:29:31.595Z,998.91
2017-10-19T06:30:41.985Z,998.96
2017-10-19T06:31:52.061Z,998.93
2017-10-19T06:33:02.474Z,998.94
2017-10-19T06:34:12.870Z,998.93
2017-10-19T06:35:23.327Z,998.95
2017-10-19T06:36:33.736Z,998.9
2017-10-19T06:37:44.141Z,998.93
2017-10-19T06:38:54.530Z,998.95
2017-10-19T06:40:04.932Z,998.94
2017-10-19T06:41:15.386Z,998.95
2017-10-19T06:42:25.134Z,998.98
2017-10-19T06:43:35.201Z,998.96
2017-10-19T06:44:45.627Z,998.95
2017-10-19T06:45:55.362Z,998.96
2017-10-19T06:47:05.479Z,998.98
2017-10-19T06:48:15.890Z,999
2017-10-19T06:49:25.962Z,999.01
2017-10-19T06:50:36.361Z,999.02
2017-10-19T06:51:46.765Z,999.01
2017-10-19T06:52:57.169Z,999.02
2017-10-19T06:54:08.411Z,998.95
2017-10-19T06:55:18.480Z,998.98
2017-10-19T06:56:28.889Z,999.02
2017-10-19T06:57:39.306Z,998.99
2017-10-19T06:58:49.719Z,998.99
2017-10-19T06:59:59.820Z,999.03
2017-10-19T07:01:10.823Z,999.09
2017-10-19T07:02:21.844Z,999.06
2017-10-19T07:03:32.821Z,999.1
2017-10-19T07:04:43.866Z,999.1
2017-10-19T07:05:54.847Z,999.11
2017-10-19T07:07:05.823Z,999.1
2017-10-19T07:08:16.468Z,999.14
2017-10-19T07:09:27.505Z,999.12
2017-10-19T07:10:38.565Z,999.14
2017-10-19T07:11:49.576Z,999.13
2017-10-19T07:13:00.203Z,999.17
2017-10-19T07:14:11.240Z,999.17
2017-10-19T07:15:22.825Z,999.18
2017-10-19T07:16:34.899Z,999.2
2017-10-19T07:17:48.619Z,999.22
2017-10-19T07:19:02.095Z,999.17
2017-10-19T07:20:15.326Z,999.19
2017-10-19T07:21:27.749Z,999.2
2017-10-19T07:22:40.633Z,999.2
2017-10-19T07:23:52.050Z,999.16
2017-10-19T07:25:05.940Z,999.19
2017-10-19T07:26:19.246Z,999.2
2017-10-19T07:27:32.690Z,999.16
2017-10-19T07:28:47.376Z,999.13
2017-10-19T07:30:01.299Z,999.13
2017-10-19T07:31:14.363Z,999.15
2017-10-19T07:32:31.170Z,999.16
2017-10-19T07:33:46.520Z,999.15
2017-10-19T07:35:02.777Z,999.17
2017-10-19T07:36:19.940Z,999.18
2017-10-19T07:37:34.136Z,999.21
2017-10-19T07:38:47.714Z,999.21
2017-10-19T07:40:04.255Z,999.22
2017-10-19T07:41:19.757Z,999.22
2017-10-19T07:42:33.080Z,999.19
2017-10-19T07:43:45.650Z,999.25
2017-10-19T07:44:59.164Z,999.25
2017-10-19T07:46:12.075Z,999.25
2017-10-19T07:47:27.575Z,999.25
2017-10-19T07:48:44.084Z,999.25
2017-10-19T07:49:58.353Z,999.23
2017-10-19T07:51:13.743Z,999.27
2017-10-19T07:52:31.121Z,999.29
2017-10-19T07:53:48.485Z,999.27
2017-10-19T07:55:05.595Z,999.29
2017-10-19T07:56:21.513Z,999.3
2017-10-19T07:57:34.150Z,999.29
2017-10-19T07:58:46.589Z,999.27
2017-10-19T07:59:59.624Z,999.28
2017-10-19T08:01:11.655Z,999.32
2017-10-19T08:02:24.995Z,999.35
2017-10-19T08:03:38.617Z,999.31
2017-10-19T08:04:55.363Z,999.33
2017-10-19T08:06:10.557Z,999.32
2017-10-19T08:07:24.795Z,999.32
2017-10-19T08:08:39.661Z,999.32
2017-10-19T08:09:54.612Z,999.32
2017-10-19T08:11:09.433Z,999.3
2017-10-19T08:12:22.711Z,999.27
2017-10-19T08:13:36.235Z,999.27
2017-10-19T08:14:49.515Z,999.21
2017-10-19T08:16:02.229Z,999.26
2017-10-19T08:17:13.642Z,999.28
2017-10-19T08:18:26.481Z,999.21
2017-10-19T08:19:39.589Z,999.27
2017-10-19T08:20:53.709Z,999.27
2017-10-19T08:22:07.811Z,999.32
2017-10-19T08:23:22.087Z,999.33
2017-10-19T08:24:35.504Z,999.33
2017-10-19T08:25:48.916Z,999.33
2017-10-19T08:26:59.653Z,999.36
2017-10-19T08:28:14.238Z,999.37
2017-10-19T08:29:26.509Z,999.36
2017-10-19T08:30:41.292Z,999.34
2017-10-19T08:31:51.723Z,999.34
2017-10-19T08:33:02.169Z,999.34
2017-10-19T08:34:12.651Z,999.38
2017-10-19T08:35:22.734Z,999.36
2017-10-19T08:36:32.830Z,999.41
2017-10-19T08:37:43.249Z,999.37
2017-10-19T08:38:53.665Z,999.39
2017-10-19T08:40:04.125Z,999.43
2017-10-19T08:41:14.526Z,999.44
2017-10-19T08:42:24.293Z,999.45
2017-10-19T08:43:34.704Z,999.48
2017-10-19T08:44:45.132Z,999.44
2017-10-19T08:45:55.297Z,999.44
2017-10-19T08:47:05.726Z,999.43
2017-10-19T08:48:16.137Z,999.42
2017-10-19T08:49:26.259Z,999.46
2017-10-19T08:50:36.674Z,999.47
2017-10-19T08:51:47.096Z,999.47
2017-10-19T08:52:57.526Z,999.55
2017-10-19T08:54:07.613Z,999.51
2017-10-19T08:55:17.369Z,999.5
2017-10-19T08:56:27.789Z,999.51
2017-10-19T08:57:38.792Z,999.52
2017-10-19T08:58:49.209Z,999.54
2017-10-19T08:59:59.601Z,999.58
2017-10-19T09:01:10.146Z,999.58
2017-10-19T09:02:20.231Z,999.55
2017-10-19T09:03:30.684Z,999.55
2017-10-19T09:04:40.755Z,999.61
2017-10-19T09:05:51.166Z,999.56
2017-10-19T09:07:01.249Z,999.58
2017-10-19T09:08:11.653Z,999.64
2017-10-19T09:09:22.106Z,999.61
2017-10-19T09:10:32.524Z,999.57
2017-10-19T09:11:42.961Z,999.58
2017-10-19T09:12:53.372Z,999.52
2017-10-19T09:14:03.765Z,999.54
2017-10-19T09:15:13.505Z,999.56
2017-10-19T09:16:23.934Z,999.58
2017-10-19T09:17:34.022Z,999.59
2017-10-19T09:18:44.420Z,999.58
2017-10-19T09:19:54.813Z,999.6
2017-10-19T09:21:04.897Z,999.59
2017-10-19T09:22:15.320Z,999.62
2017-10-19T09:23:26.992Z,999.6
2017-10-19T09:24:37.402Z,999.6
2017-10-19T09:25:47.828Z,999.57
2017-10-19T09:26:57.634Z,999.6
2017-10-19T09:28:08.046Z,999.59
2017-10-19T09:29:18.126Z,999.61
2017-10-19T09:30:28.201Z,999.65
2017-10-19T09:31:38.624Z,999.68
2017-10-19T09:32:48.923Z,999.64
2017-10-19T09:33:59.926Z,999.67
2017-10-19T09:35:10.581Z,999.69
2017-10-19T09:36:21.018Z,999.64
2017-10-19T09:37:31.430Z,999.68
2017-10-19T09:38:41.941Z,999.69
2017-10-19T09:39:52.438Z,999.71
2017-10-19T09:41:02.982Z,999.71
2017-10-19T09:42:13.503Z,999.7
2017-10-19T09:43:23.980Z,999.73
2017-10-19T09:44:34.463Z,999.75
2017-10-19T09:45:44.917Z,999.74
2017-10-19T09:46:55.356Z,999.73
2017-10-19T09:48:05.805Z,999.74
2017-10-19T09:49:16.234Z,999.71
2017-10-19T09:50:26.722Z,999.75
2017-10-19T09:51:37.225Z,999.78
2017-10-19T09:52:47.352Z,999.74
2017-10-19T09:53:57.782Z,999.74
2017-10-19T09:55:08.207Z,999.74
2017-10-19T09:56:18.669Z,999.73
2017-10-19T09:57:29.071Z,999.79
2017-10-19T09:58:39.149Z,999.81
2017-10-19T09:59:49.595Z,999.82
2017-10-19T10:01:00.025Z,999.81
2017-10-19T10:02:10.484Z,999.84
2017-10-19T10:03:20.580Z,999.86
2017-10-19T10:04:31.037Z,999.88
2017-10-19T10:05:41.487Z,999.9
2017-10-19T10:06:52.645Z,999.9
2017-10-19T10:08:03.080Z,999.89
2017-10-19T10:09:13.178Z,999.89
2017-10-19T10:10:23.614Z,999.87
2017-10-19T10:11:34.041Z,999.85
2017-10-19T10:12:44.466Z,999.86
2017-10-19T10:13:54.931Z,999.83
2017-10-19T10:15:05.369Z,999.78
2017-10-19T10:16:15.848Z,999.79
2017-10-19T10:17:26.197Z,999.78
2017-10-19T10:18:36.303Z,999.82
2017-10-19T10:19:46.450Z,999.78
2017-10-19T10:20:56.871Z,999.76
2017-10-19T10:22:07.289Z,999.79
2017-10-19T10:23:17.705Z,999.78
2017-10-19T10:24:28.126Z,999.8
2017-10-19T10:25:38.620Z,999.78
2017-10-19T10:26:49.035Z,999.77
2017-10-19T10:27:59.150Z,999.75
2017-10-19T10:29:09.233Z,999.75
2017-10-19T10:30:19.681Z,999.79
2017-10-19T10:31:30.155Z,999.78
2017-10-19T10:32:40.574Z,999.79
2017-10-19T10:33:50.996Z,999.77
2017-10-19T10:35:01.411Z,999.76
2017-10-19T10:36:11.841Z,999.78
2017-10-19T10:37:22.301Z,999.76
2017-10-19T10:38:32.716Z,999.76
2017-10-19T10:39:43.165Z,999.76
2017-10-19T10:40:52.942Z,999.77
2017-10-19T10:42:03.383Z,999.75
2017-10-19T10:43:13.518Z,999.72
2017-10-19T10:44:23.962Z,999.68
2017-10-19T10:45:34.392Z,999.67
2017-10-19T10:46:44.215Z,999.69
2017-10-19T10:47:54.302Z,999.69
2017-10-19T10:49:04.390Z,999.68
2017-10-19T10:50:14.835Z,999.63
2017-10-19T10:51:25.254Z,999.68
2017-10-19T10:52:35.664Z,999.63
2017-10-19T10:53:46.064Z,999.64
2017-10-19T10:54:56.495Z,999.6
2017-10-19T10:56:06.905Z,999.63
2017-10-19T10:57:17.328Z,999.63
2017-10-19T10:58:27.131Z,999.64
2017-10-19T10:59:37.549Z,999.64
2017-10-19T11:00:48.028Z,999.63
2017-10-19T11:01:58.452Z,999.62
2017-10-19T11:03:08.863Z,999.64
2017-10-19T11:04:19.264Z,999.65
2017-10-19T11:05:29.346Z,999.6
2017-10-19T11:06:39.763Z,999.61
2017-10-19T11:07:50.179Z,999.57
2017-10-19T11:09:00.253Z,999.52
2017-10-19T11:10:10.647Z,999.47
2017-10-19T11:11:21.059Z,999.48
2017-10-19T11:12:31.568Z,999.48
2017-10-19T11:13:41.975Z,999.44
2017-10-19T11:14:52.403Z,999.46
2017-10-19T11:16:02.860Z,999.37
2017-10-19T11:17:13.283Z,999.44
2017-10-19T11:18:23.442Z,999.37
2017-10-19T11:19:33.537Z,999.36
2017-10-19T11:20:43.973Z,999.34
2017-10-19T11:21:54.377Z,999.39
2017-10-19T11:23:04.464Z,999.36
2017-10-19T11:24:14.923Z,999.33
2017-10-19T11:25:25.035Z,999.35
2017-10-19T11:26:34.808Z,999.37
2017-10-19T11:27:45.233Z,999.35
2017-10-19T11:28:55.668Z,999.37
2017-10-19T11:30:05.759Z,999.34
2017-10-19T11:31:16.187Z,999.35
2017-10-19T11:32:26.271Z,999.31
2017-10-19T11:33:36.358Z,999.32
2017-10-19T11:34:46.791Z,999.31
2017-10-19T11:35:57.279Z,999.31
2017-10-19T11:37:07.032Z,999.3
2017-10-19T11:38:17.439Z,999.27
2017-10-19T11:39:27.856Z,999.3
2017-10-19T11:40:37.915Z,999.23
2017-10-19T11:41:48.385Z,999.21
2017-10-19T11:42:59.176Z,999.21
2017-10-19T11:44:09.616Z,999.11
2017-10-19T11:45:20.039Z,999.08
2017-10-19T11:46:30.119Z,999.08
2017-10-19T11:47:39.859Z,999.06
2017-10-19T11:48:49.595Z,999.08
2017-10-19T11:49:59.658Z,999.09
2017-10-19T11:51:10.064Z,999.05
2017-10-19T11:52:19.809Z,999.05
2017-10-19T11:53:30.283Z,999.03
2017-10-19T11:54:40.701Z,999.02
2017-10-19T11:55:51.119Z,999.04
2017-10-19T11:57:01.559Z,999
2017-10-19T11:58:11.952Z,999.02
2017-10-19T11:59:22.048Z,998.97
2017-10-19T12:00:32.479Z,998.97
2017-10-19T12:01:42.906Z,998.98
2017-10-19T12:02:53.326Z,999.01
2017-10-19T12:04:03.760Z,999.01
2017-10-19T12:05:14.270Z,999.03
2017-10-19T12:06:24.691Z,999.04
2017-10-19T12:07:34.754Z,999
2017-10-19T12:08:45.186Z,998.98
2017-10-19T12:09:55.597Z,999.01
2017-10-19T12:11:06.060Z,998.98
2017-10-19T12:12:16.493Z,998.97
2017-10-19T12:13:26.909Z,999.01
2017-10-19T12:14:36.990Z,999.01
2017-10-19T12:15:47.410Z,998.97
2017-10-19T12:16:57.862Z,998.99
2017-10-19T12:18:08.296Z,998.98
2017-10-19T12:19:18.722Z,999.01
2017-10-19T12:20:28.498Z,999.03
2017-10-19T12:21:40.007Z,999.04
2017-10-19T12:22:50.501Z,999.06
2017-10-19T12:24:01.809Z,999.03
2017-10-19T12:25:12.230Z,999.08
2017-10-19T12:26:22.643Z,998.99
2017-10-19T12:27:33.156Z,999
2017-10-19T12:28:44.686Z,998.99
2017-10-19T12:29:56.420Z,999
2017-10-19T12:31:08.150Z,998.94
2017-10-19T12:32:19.797Z,998.97
2017-10-19T12:33:32.357Z,998.98
2017-10-19T12:34:44.766Z,998.99
2017-10-19T12:35:55.276Z,998.96
2017-10-19T12:37:08.542Z,998.97
2017-10-19T12:38:19.012Z,998.87
2017-10-19T12:39:29.271Z,998.92
2017-10-19T12:40:40.640Z,998.89
2017-10-19T12:41:59.275Z,998.93
2017-10-19T12:43:09.670Z,998.96
2017-10-19T12:44:20.083Z,998.94
2017-10-19T12:45:30.588Z,998.9
2017-10-19T12:46:41.099Z,998.88
2017-10-19T12:47:51.526Z,998.88
2017-10-19T12:49:02.003Z,998.83
2017-10-19T12:50:12.138Z,998.85
2017-10-19T12:51:22.660Z,998.88
2017-10-19T12:52:32.918Z,998.83
2017-10-19T12:53:43.394Z,998.86
2017-10-19T12:54:53.871Z,998.83
2017-10-19T12:56:05.314Z,998.86
2017-10-19T12:57:15.738Z,998.85
2017-10-19T12:58:26.147Z,998.8
2017-10-19T12:59:36.568Z,998.81
2017-10-19T13:00:46.660Z,998.78
2017-10-19T13:01:58.074Z,998.73
2017-10-19T13:03:08.154Z,998.76
2017-10-19T13:04:18.586Z,998.76
2017-10-19T13:05:28.660Z,998.71
2017-10-19T13:06:39.066Z,998.74
2017-10-19T13:07:49.550Z,998.74
2017-10-19T13:08:59.967Z,998.69
2017-10-19T13:10:10.047Z,998.68
2017-10-19T13:11:20.135Z,998.72
2017-10-19T13:12:30.231Z,998.73
2017-10-19T13:13:40.643Z,998.67
2017-10-19T13:14:50.731Z,998.67
2017-10-19T13:16:01.167Z,998.69
2017-10-19T13:17:11.277Z,998.69
2017-10-19T13:18:21.748Z,998.64
2017-10-19T13:19:32.211Z,998.69
2017-10-19T13:20:42.317Z,998.68
2017-10-19T13:21:52.740Z,998.65
2017-10-19T13:23:03.180Z,998.66
2017-10-19T13:24:13.281Z,998.66
2017-10-19T13:25:23.742Z,998.64
2017-10-19T13:26:34.144Z,998.65
2017-10-19T13:27:44.231Z,998.63
2017-10-19T13:28:54.330Z,998.65
2017-10-19T13:30:04.412Z,998.62
2017-10-19T13:31:14.878Z,998.63
2017-10-19T13:32:25.320Z,998.66
2017-10-19T13:33:35.401Z,998.66
2017-10-19T13:34:45.853Z,998.62
2017-10-19T13:35:56.746Z,998.64
2017-10-19T13:37:07.171Z,998.61
2017-10-19T13:38:17.590Z,998.63
2017-10-19T13:39:27.686Z,998.62
2017-10-19T13:40:38.103Z,998.59
2017-10-19T13:41:48.218Z,998.61
2017-10-19T13:42:58.680Z,998.59
2017-10-19T13:44:09.119Z,998.65
2017-10-19T13:45:19.526Z,998.61
2017-10-19T13:46:29.927Z,998.63
2017-10-19T13:47:40.015Z,998.66
2017-10-19T13:48:50.558Z,998.63
2017-10-19T13:50:00.994Z,998.62
2017-10-19T13:51:11.403Z,998.65
2017-10-19T13:52:21.477Z,998.64
2017-10-19T13:53:31.877Z,998.63
2017-10-19T13:54:42.355Z,998.69
2017-10-19T13:55:53.822Z,998.67
2017-10-19T13:57:03.979Z,998.64
2017-10-19T13:58:14.396Z,998.64
2017-10-19T13:59:25.430Z,998.63
2017-10-19T14:00:35.853Z,998.66
2017-10-19T14:01:46.275Z,998.64
2017-10-19T14:02:56.697Z,998.62
2017-10-19T14:04:06.787Z,998.65
2017-10-19T14:05:17.190Z,998.67
2017-10-19T14:06:27.271Z,998.65
2017-10-19T14:07:37.344Z,998.67
2017-10-19T14:08:47.752Z,998.7
2017-10-19T14:09:57.842Z,998.72
2017-10-19T14:11:08.267Z,998.66
2017-10-19T14:12:18.672Z,998.64
2017-10-19T14:13:29.077Z,998.64
2017-10-19T14:14:38.829Z,998.66
2017-10-19T14:15:48.596Z,998.63
2017-10-19T14:16:59.005Z,998.59
2017-10-19T14:18:09.115Z,998.6
2017-10-19T14:19:19.195Z,998.58
2017-10-19T14:20:29.597Z,998.53
2017-10-19T14:21:40.005Z,998.57
2017-10-19T14:22:50.086Z,998.55
2017-10-19T14:24:00.161Z,998.55
2017-10-19T14:25:10.560Z,998.56
2017-10-19T14:26:20.664Z,998.56
2017-10-19T14:27:30.757Z,998.5
2017-10-19T14:28:41.177Z,998.53
2017-10-19T14:29:50.928Z,998.53
2017-10-19T14:31:01.374Z,998.49
2017-10-19T14:32:11.819Z,998.48
2017-10-19T14:33:22.234Z,998.45
2017-10-19T14:34:32.306Z,998.45
2017-10-19T14:35:42.718Z,998.46
2017-10-19T14:36:53.588Z,998.48
2017-10-19T14:38:03.659Z,998.47
2017-10-19T14:39:13.739Z,998.48
2017-10-19T14:40:24.146Z,998.46
2017-10-19T14:41:34.640Z,998.44
2017-10-19T14:42:44.744Z,998.45
2017-10-19T14:43:55.158Z,998.46
2017-10-19T14:45:05.254Z,998.42
2017-10-19T14:46:15.013Z,998.4
2017-10-19T14:47:25.152Z,998.39
2017-10-19T14:48:35.569Z,998.35
2017-10-19T14:49:46.041Z,998.41
2017-10-19T14:50:56.459Z,998.35
2017-10-19T14:52:06.531Z,998.39
2017-10-19T14:53:16.670Z,998.37
2017-10-19T14:54:26.734Z,998.33
2017-10-19T14:55:36.829Z,998.31
2017-10-19T14:56:47.238Z,998.33
2017-10-19T14:57:57.333Z,998.37
2017-10-19T14:59:07.467Z,998.35
2017-10-19T15:00:17.882Z,998.36
2017-10-19T15:01:27.975Z,998.39
2017-10-19T15:02:38.393Z,998.39
2017-10-19T15:03:48.499Z,998.38
2017-10-19T15:04:58.966Z,998.39
2017-10-19T15:06:09.413Z,998.33
2017-10-19T15:07:19.508Z,998.32
2017-10-19T15:08:29.931Z,998.29
2017-10-19T15:09:40.008Z,998.33
2017-10-19T15:10:50.473Z,998.33
2017-10-19T15:12:00.882Z,998.36
2017-10-19T15:13:11.324Z,998.35
2017-10-19T15:14:21.780Z,998.35